sensor_id;sensor_type;location;lat;lon;timestamp;temperature;humidity
45549;DHT22;31270;48.328;10.096;2022-10-22T00:01:40;13.60;99.90
45549;DHT22;31270;48.328;10.096;2022-10-22T00:04:06;13.60;99.90
45549;DHT22;31270;48.328;10.096;2022-10-22T00:06:32;13.60;99.90
45549;DHT22;31270;48.328;10.096;2022-10-22T00:08:58;13.70;99.90
45549;DHT22;31270;48.328;10.096;2022-10-22T00:11:24;13.50;99.90
45549;DHT22;31270;48.328;10.096;2022-10-22T00:13:50;13.60;99.90
45549;DHT22;31270;48.328;10.096;2022-10-22T00:16:16;13.50;99.90
45549;DHT22;31270;48.328;10.096;2022-10-22T00:18:41;13.50;99.90
45549;DHT22;31270;48.328;10.096;2022-10-22T00:21:07;13.40;99.90
45549;DHT22;31270;48.328;10.096;2022-10-22T00:23:33;13.40;99.90
45549;DHT22;31270;48.328;10.096;2022-10-22T00:25:59;13.40;99.90
45549;DHT22;31270;48.328;10.096;2022-10-22T00:28:25;13.40;99.90
45549;DHT22;31270;48.328;10.096;2022-10-22T00:30:58;13.50;99.90
45549;DHT22;31270;48.328;10.096;2022-10-22T00:33:25;13.30;99.90
45549;DHT22;31270;48.328;10.096;2022-10-22T00:35:51;13.40;99.90
45549;DHT22;31270;48.328;10.096;2022-10-22T00:38:16;13.30;99.90
45549;DHT22;31270;48.328;10.096;2022-10-22T00:40:42;13.40;99.90
45549;DHT22;31270;48.328;10.096;2022-10-22T00:43:11;13.30;99.90
45549;DHT22;31270;48.328;10.096;2022-10-22T00:45:37;13.30;99.90
45549;DHT22;31270;48.328;10.096;2022-10-22T00:48:06;13.10;99.90
45549;DHT22;31270;48.328;10.096;2022-10-22T00:50:45;13.20;99.90
45549;DHT22;31270;48.328;10.096;2022-10-22T00:53:15;13.20;99.90
45549;DHT22;31270;48.328;10.096;2022-10-22T00:55:43;13.20;99.90
45549;DHT22;31270;48.328;10.096;2022-10-22T00:58:09;13.20;99.90
45549;DHT22;31270;48.328;10.096;2022-10-22T01:00:35;13.20;99.90
45549;DHT22;31270;48.328;10.096;2022-10-22T01:03:00;13.10;99.90
45549;DHT22;31270;48.328;10.096;2022-10-22T01:11:44;13.10;99.90
45549;DHT22;31270;48.328;10.096;2022-10-22T01:14:24;13.10;99.90
45549;DHT22;31270;48.328;10.096;2022-10-22T01:17:00;13.10;99.90
45549;DHT22;31270;48.328;10.096;2022-10-22T01:20:03;13.00;99.90
45549;DHT22;31270;48.328;10.096;2022-10-22T01:25:34;12.90;99.90
45549;DHT22;31270;48.328;10.096;2022-10-22T01:28:11;12.80;99.90
45549;DHT22;31270;48.328;10.096;2022-10-22T01:30:43;12.80;99.90
45549;DHT22;31270;48.328;10.096;2022-10-22T01:33:12;12.70;99.90
45549;DHT22;31270;48.328;10.096;2022-10-22T01:35:42;12.70;99.90
45549;DHT22;31270;48.328;10.096;2022-10-22T01:38:13;12.70;99.90
45549;DHT22;31270;48.328;10.096;2022-10-22T01:40:39;12.70;99.90
45549;DHT22;31270;48.328;10.096;2022-10-22T01:43:08;12.70;99.90
45549;DHT22;31270;48.328;10.096;2022-10-22T01:45:37;12.60;99.90
45549;DHT22;31270;48.328;10.096;2022-10-22T01:54:01;12.50;99.90
45549;DHT22;31270;48.328;10.096;2022-10-22T01:59:34;12.40;99.90
45549;DHT22;31270;48.328;10.096;2022-10-22T02:04:56;12.40;99.90
45549;DHT22;31270;48.328;10.096;2022-10-22T02:07:25;12.40;99.90
45549;DHT22;31270;48.328;10.096;2022-10-22T02:09:54;12.40;99.90
45549;DHT22;31270;48.328;10.096;2022-10-22T02:12:21;12.40;99.90
45549;DHT22;31270;48.328;10.096;2022-10-22T02:14:49;12.40;99.90
45549;DHT22;31270;48.328;10.096;2022-10-22T02:17:19;12.30;99.90
45549;DHT22;31270;48.328;10.096;2022-10-22T02:19:55;12.30;99.90
45549;DHT22;31270;48.328;10.096;2022-10-22T02:22:21;12.50;99.90
45549;DHT22;31270;48.328;10.096;2022-10-22T02:24:48;12.30;99.90
45549;DHT22;31270;48.328;10.096;2022-10-22T02:27:35;12.30;99.90
45549;DHT22;31270;48.328;10.096;2022-10-22T02:30:06;12.30;99.90
45549;DHT22;31270;48.328;10.096;2022-10-22T02:32:40;12.30;99.90
45549;DHT22;31270;48.328;10.096;2022-10-22T02:35:14;12.20;99.90
45549;DHT22;31270;48.328;10.096;2022-10-22T02:37:40;12.20;99.90
45549;DHT22;31270;48.328;10.096;2022-10-22T02:40:07;12.20;99.90
45549;DHT22;31270;48.328;10.096;2022-10-22T02:42:34;12.20;99.90
45549;DHT22;31270;48.328;10.096;2022-10-22T02:45:01;12.30;99.90
45549;DHT22;31270;48.328;10.096;2022-10-22T02:47:27;12.20;99.90
45549;DHT22;31270;48.328;10.096;2022-10-22T02:49:52;12.10;99.90
45549;DHT22;31270;48.328;10.096;2022-10-22T02:52:18;12.10;99.90
45549;DHT22;31270;48.328;10.096;2022-10-22T02:54:44;12.00;99.90
45549;DHT22;31270;48.328;10.096;2022-10-22T02:57:09;12.10;99.90
45549;DHT22;31270;48.328;10.096;2022-10-22T02:59:35;12.10;99.90
45549;DHT22;31270;48.328;10.096;2022-10-22T03:02:00;12.10;99.90
45549;DHT22;31270;48.328;10.096;2022-10-22T03:04:26;12.10;99.90
45549;DHT22;31270;48.328;10.096;2022-10-22T03:06:52;12.10;99.90
45549;DHT22;31270;48.328;10.096;2022-10-22T03:09:17;12.10;99.90
45549;DHT22;31270;48.328;10.096;2022-10-22T03:11:43;12.10;99.90
45549;DHT22;31270;48.328;10.096;2022-10-22T03:14:09;12.10;99.90
45549;DHT22;31270;48.328;10.096;2022-10-22T03:16:34;12.00;99.90
45549;DHT22;31270;48.328;10.096;2022-10-22T03:19:00;12.10;99.90
45549;DHT22;31270;48.328;10.096;2022-10-22T03:21:43;12.00;99.90
45549;DHT22;31270;48.328;10.096;2022-10-22T03:24:18;12.00;99.90
45549;DHT22;31270;48.328;10.096;2022-10-22T03:26:47;12.00;99.90
45549;DHT22;31270;48.328;10.096;2022-10-22T03:29:15;12.00;99.90
45549;DHT22;31270;48.328;10.096;2022-10-22T03:31:40;12.00;99.90
45549;DHT22;31270;48.328;10.096;2022-10-22T03:34:06;11.90;99.90
45549;DHT22;31270;48.328;10.096;2022-10-22T03:36:32;12.00;99.90
45549;DHT22;31270;48.328;10.096;2022-10-22T03:39:00;11.90;99.90
45549;DHT22;31270;48.328;10.096;2022-10-22T03:41:26;12.00;99.90
45549;DHT22;31270;48.328;10.096;2022-10-22T03:43:52;12.00;99.90
45549;DHT22;31270;48.328;10.096;2022-10-22T03:46:19;12.00;99.90
45549;DHT22;31270;48.328;10.096;2022-10-22T03:48:45;12.10;99.90
45549;DHT22;31270;48.328;10.096;2022-10-22T03:51:10;12.00;99.90
45549;DHT22;31270;48.328;10.096;2022-10-22T03:53:36;12.00;99.90
45549;DHT22;31270;48.328;10.096;2022-10-22T03:56:04;11.90;99.90
45549;DHT22;31270;48.328;10.096;2022-10-22T03:58:31;12.00;99.90
45549;DHT22;31270;48.328;10.096;2022-10-22T04:01:08;12.00;99.90
45549;DHT22;31270;48.328;10.096;2022-10-22T04:03:38;12.00;99.90
45549;DHT22;31270;48.328;10.096;2022-10-22T04:06:09;12.00;99.90
45549;DHT22;31270;48.328;10.096;2022-10-22T04:08:38;12.00;99.90
45549;DHT22;31270;48.328;10.096;2022-10-22T04:11:03;11.90;99.90
45549;DHT22;31270;48.328;10.096;2022-10-22T04:13:29;11.90;99.90
45549;DHT22;31270;48.328;10.096;2022-10-22T04:15:55;11.90;99.90
45549;DHT22;31270;48.328;10.096;2022-10-22T04:18:22;11.90;99.90
45549;DHT22;31270;48.328;10.096;2022-10-22T04:20:47;11.90;99.90
45549;DHT22;31270;48.328;10.096;2022-10-22T04:23:13;11.90;99.90
45549;DHT22;31270;48.328;10.096;2022-10-22T04:25:39;11.90;99.90
45549;DHT22;31270;48.328;10.096;2022-10-22T04:28:06;11.90;99.90
45549;DHT22;31270;48.328;10.096;2022-10-22T04:30:33;11.90;99.90
45549;DHT22;31270;48.328;10.096;2022-10-22T04:32:58;11.90;99.90
45549;DHT22;31270;48.328;10.096;2022-10-22T04:35:24;11.80;99.90
45549;DHT22;31270;48.328;10.096;2022-10-22T04:37:50;11.90;99.90
45549;DHT22;31270;48.328;10.096;2022-10-22T04:40:15;11.80;99.90
45549;DHT22;31270;48.328;10.096;2022-10-22T04:42:41;12.00;99.90
45549;DHT22;31270;48.328;10.096;2022-10-22T04:45:07;11.80;99.90
45549;DHT22;31270;48.328;10.096;2022-10-22T04:47:33;11.80;99.90
45549;DHT22;31270;48.328;10.096;2022-10-22T04:49:58;11.80;99.90
45549;DHT22;31270;48.328;10.096;2022-10-22T04:52:24;12.00;99.90
45549;DHT22;31270;48.328;10.096;2022-10-22T04:54:50;11.80;99.90
45549;DHT22;31270;48.328;10.096;2022-10-22T04:57:15;11.80;99.90
45549;DHT22;31270;48.328;10.096;2022-10-22T04:59:41;11.80;99.90
45549;DHT22;31270;48.328;10.096;2022-10-22T05:02:07;11.70;99.90
45549;DHT22;31270;48.328;10.096;2022-10-22T05:04:33;11.70;99.90
45549;DHT22;31270;48.328;10.096;2022-10-22T05:06:58;11.70;99.90
45549;DHT22;31270;48.328;10.096;2022-10-22T05:09:24;11.70;99.90
45549;DHT22;31270;48.328;10.096;2022-10-22T05:11:51;11.70;99.90
45549;DHT22;31270;48.328;10.096;2022-10-22T05:14:20;11.70;99.90
45549;DHT22;31270;48.328;10.096;2022-10-22T05:16:46;11.70;99.90
45549;DHT22;31270;48.328;10.096;2022-10-22T05:19:18;11.90;99.90
45549;DHT22;31270;48.328;10.096;2022-10-22T05:21:44;11.80;99.90
45549;DHT22;31270;48.328;10.096;2022-10-22T05:24:10;11.90;99.90
45549;DHT22;31270;48.328;10.096;2022-10-22T05:26:36;11.90;99.90
45549;DHT22;31270;48.328;10.096;2022-10-22T05:29:01;11.80;99.90
45549;DHT22;31270;48.328;10.096;2022-10-22T05:31:27;11.80;99.90
45549;DHT22;31270;48.328;10.096;2022-10-22T05:33:54;11.70;99.90
45549;DHT22;31270;48.328;10.096;2022-10-22T05:36:20;11.70;99.90
45549;DHT22;31270;48.328;10.096;2022-10-22T05:38:47;11.70;99.90
45549;DHT22;31270;48.328;10.096;2022-10-22T05:41:19;11.80;99.90
45549;DHT22;31270;48.328;10.096;2022-10-22T05:43:46;11.80;99.90
45549;DHT22;31270;48.328;10.096;2022-10-22T05:46:15;11.80;99.90
45549;DHT22;31270;48.328;10.096;2022-10-22T05:48:41;11.80;99.90
45549;DHT22;31270;48.328;10.096;2022-10-22T05:51:10;11.80;99.90
45549;DHT22;31270;48.328;10.096;2022-10-22T05:53:38;11.80;99.90
45549;DHT22;31270;48.328;10.096;2022-10-22T05:56:07;11.80;99.90
45549;DHT22;31270;48.328;10.096;2022-10-22T05:58:34;11.80;99.90
45549;DHT22;31270;48.328;10.096;2022-10-22T06:01:05;11.70;99.90
45549;DHT22;31270;48.328;10.096;2022-10-22T06:03:31;11.80;99.90
45549;DHT22;31270;48.328;10.096;2022-10-22T06:06:03;11.80;99.90
45549;DHT22;31270;48.328;10.096;2022-10-22T06:08:29;11.80;99.90
45549;DHT22;31270;48.328;10.096;2022-10-22T06:10:56;11.90;99.90
45549;DHT22;31270;48.328;10.096;2022-10-22T06:13:21;11.80;99.90
45549;DHT22;31270;48.328;10.096;2022-10-22T06:15:48;11.80;99.90
45549;DHT22;31270;48.328;10.096;2022-10-22T06:18:14;11.80;99.90
45549;DHT22;31270;48.328;10.096;2022-10-22T06:20:40;11.80;99.90
45549;DHT22;31270;48.328;10.096;2022-10-22T06:23:07;11.80;99.90
45549;DHT22;31270;48.328;10.096;2022-10-22T06:25:33;11.80;99.90
45549;DHT22;31270;48.328;10.096;2022-10-22T06:27:58;11.80;99.90
45549;DHT22;31270;48.328;10.096;2022-10-22T06:30:24;11.90;99.90
45549;DHT22;31270;48.328;10.096;2022-10-22T06:32:50;11.90;99.90
45549;DHT22;31270;48.328;10.096;2022-10-22T06:35:15;11.90;99.90
45549;DHT22;31270;48.328;10.096;2022-10-22T06:37:41;11.90;99.90
45549;DHT22;31270;48.328;10.096;2022-10-22T06:40:07;11.90;99.90
45549;DHT22;31270;48.328;10.096;2022-10-22T06:42:33;12.00;99.90
45549;DHT22;31270;48.328;10.096;2022-10-22T06:44:58;12.00;99.90
45549;DHT22;31270;48.328;10.096;2022-10-22T06:47:25;12.00;99.90
45549;DHT22;31270;48.328;10.096;2022-10-22T06:49:51;12.00;99.90
45549;DHT22;31270;48.328;10.096;2022-10-22T06:52:17;12.00;99.90
45549;DHT22;31270;48.328;10.096;2022-10-22T06:54:43;12.10;99.90
45549;DHT22;31270;48.328;10.096;2022-10-22T06:57:09;12.10;99.90
45549;DHT22;31270;48.328;10.096;2022-10-22T06:59:35;12.10;99.90
45549;DHT22;31270;48.328;10.096;2022-10-22T07:02:00;12.10;99.90
45549;DHT22;31270;48.328;10.096;2022-10-22T07:04:26;12.10;99.90
45549;DHT22;31270;48.328;10.096;2022-10-22T07:06:54;12.10;99.90
45549;DHT22;31270;48.328;10.096;2022-10-22T07:09:19;12.30;99.90
45549;DHT22;31270;48.328;10.096;2022-10-22T07:11:45;12.10;99.90
45549;DHT22;31270;48.328;10.096;2022-10-22T07:14:12;12.10;99.90
45549;DHT22;31270;48.328;10.096;2022-10-22T07:16:38;12.10;99.90
45549;DHT22;31270;48.328;10.096;2022-10-22T07:19:06;12.10;99.90
45549;DHT22;31270;48.328;10.096;2022-10-22T07:21:32;12.20;99.90
45549;DHT22;31270;48.328;10.096;2022-10-22T07:23:58;12.20;99.90
45549;DHT22;31270;48.328;10.096;2022-10-22T07:26:24;12.20;99.90
45549;DHT22;31270;48.328;10.096;2022-10-22T07:28:50;12.20;99.90
45549;DHT22;31270;48.328;10.096;2022-10-22T07:31:16;12.20;99.90
45549;DHT22;31270;48.328;10.096;2022-10-22T07:33:43;12.30;99.90
45549;DHT22;31270;48.328;10.096;2022-10-22T07:36:11;12.30;99.90
45549;DHT22;31270;48.328;10.096;2022-10-22T07:38:42;12.30;99.90
45549;DHT22;31270;48.328;10.096;2022-10-22T07:41:09;12.40;99.90
45549;DHT22;31270;48.328;10.096;2022-10-22T07:43:35;12.50;99.90
45549;DHT22;31270;48.328;10.096;2022-10-22T07:46:00;12.50;99.90
45549;DHT22;31270;48.328;10.096;2022-10-22T07:48:27;12.50;99.90
45549;DHT22;31270;48.328;10.096;2022-10-22T07:50:53;12.60;99.90
45549;DHT22;31270;48.328;10.096;2022-10-22T07:53:19;12.60;99.90
45549;DHT22;31270;48.328;10.096;2022-10-22T07:55:55;12.70;99.90
45549;DHT22;31270;48.328;10.096;2022-10-22T07:58:21;12.70;99.90
45549;DHT22;31270;48.328;10.096;2022-10-22T08:00:47;12.80;99.90
45549;DHT22;31270;48.328;10.096;2022-10-22T08:03:14;12.90;99.90
45549;DHT22;31270;48.328;10.096;2022-10-22T08:05:40;12.90;99.90
45549;DHT22;31270;48.328;10.096;2022-10-22T08:08:09;12.90;99.90
45549;DHT22;31270;48.328;10.096;2022-10-22T08:10:34;13.00;99.90
45549;DHT22;31270;48.328;10.096;2022-10-22T08:13:00;13.10;99.90
45549;DHT22;31270;48.328;10.096;2022-10-22T08:15:26;13.10;99.90
45549;DHT22;31270;48.328;10.096;2022-10-22T08:17:52;13.10;99.90
45549;DHT22;31270;48.328;10.096;2022-10-22T08:20:18;13.30;99.90
45549;DHT22;31270;48.328;10.096;2022-10-22T08:22:44;13.40;99.90
45549;DHT22;31270;48.328;10.096;2022-10-22T08:25:10;13.50;99.90
45549;DHT22;31270;48.328;10.096;2022-10-22T08:27:36;13.50;99.90
45549;DHT22;31270;48.328;10.096;2022-10-22T08:30:03;13.70;99.90
45549;DHT22;31270;48.328;10.096;2022-10-22T08:32:29;13.60;99.90
45549;DHT22;31270;48.328;10.096;2022-10-22T08:34:55;13.50;99.90
45549;DHT22;31270;48.328;10.096;2022-10-22T08:37:20;13.60;99.90
45549;DHT22;31270;48.328;10.096;2022-10-22T08:39:46;13.60;99.90
45549;DHT22;31270;48.328;10.096;2022-10-22T08:45:14;13.70;99.90
45549;DHT22;31270;48.328;10.096;2022-10-22T08:50:48;13.90;99.90
45549;DHT22;31270;48.328;10.096;2022-10-22T08:53:18;14.10;99.90
45549;DHT22;31270;48.328;10.096;2022-10-22T08:55:47;14.40;99.90
45549;DHT22;31270;48.328;10.096;2022-10-22T08:58:34;14.60;99.90
45549;DHT22;31270;48.328;10.096;2022-10-22T09:01:21;14.60;99.90
45549;DHT22;31270;48.328;10.096;2022-10-22T09:03:55;14.80;99.90
45549;DHT22;31270;48.328;10.096;2022-10-22T09:06:27;14.70;99.90
45549;DHT22;31270;48.328;10.096;2022-10-22T09:08:56;14.80;99.90
45549;DHT22;31270;48.328;10.096;2022-10-22T09:17:15;14.80;99.90
45549;DHT22;31270;48.328;10.096;2022-10-22T09:22:53;15.20;99.90
45549;DHT22;31270;48.328;10.096;2022-10-22T09:25:27;15.40;99.90
45549;DHT22;31270;48.328;10.096;2022-10-22T09:27:53;15.50;99.90
45549;DHT22;31270;48.328;10.096;2022-10-22T09:30:29;15.50;99.90
45549;DHT22;31270;48.328;10.096;2022-10-22T09:35:52;15.60;99.90
45549;DHT22;31270;48.328;10.096;2022-10-22T09:38:20;15.70;99.90
45549;DHT22;31270;48.328;10.096;2022-10-22T09:40:51;15.70;99.90
45549;DHT22;31270;48.328;10.096;2022-10-22T09:43:23;15.90;99.90
45549;DHT22;31270;48.328;10.096;2022-10-22T09:45:55;15.80;99.90
45549;DHT22;31270;48.328;10.096;2022-10-22T09:48:32;16.00;99.90
45549;DHT22;31270;48.328;10.096;2022-10-22T09:51:20;16.00;99.90
45549;DHT22;31270;48.328;10.096;2022-10-22T09:53:58;16.00;99.90
45549;DHT22;31270;48.328;10.096;2022-10-22T09:56:33;16.10;99.90
45549;DHT22;31270;48.328;10.096;2022-10-22T09:59:00;16.30;99.90
45549;DHT22;31270;48.328;10.096;2022-10-22T10:01:33;16.40;99.90
45549;DHT22;31270;48.328;10.096;2022-10-22T10:04:07;16.50;99.90
45549;DHT22;31270;48.328;10.096;2022-10-22T10:06:35;16.60;99.90
45549;DHT22;31270;48.328;10.096;2022-10-22T10:09:16;16.80;99.90
45549;DHT22;31270;48.328;10.096;2022-10-22T10:30:45;16.80;99.90
45549;DHT22;31270;48.328;10.096;2022-10-22T10:38:41;17.00;99.90
45549;DHT22;31270;48.328;10.096;2022-10-22T10:49:34;17.50;99.90
45549;DHT22;31270;48.328;10.096;2022-10-22T10:52:19;17.60;99.90
45549;DHT22;31270;48.328;10.096;2022-10-22T10:55:11;17.70;99.90
45549;DHT22;31270;48.328;10.096;2022-10-22T10:58:10;17.90;99.90
45549;DHT22;31270;48.328;10.096;2022-10-22T11:01:18;18.00;99.90
45549;DHT22;31270;48.328;10.096;2022-10-22T11:06:48;18.00;99.90
45549;DHT22;31270;48.328;10.096;2022-10-22T11:09:24;18.30;99.90
45549;DHT22;31270;48.328;10.096;2022-10-22T11:11:58;18.40;99.90
45549;DHT22;31270;48.328;10.096;2022-10-22T11:17:13;18.70;99.90
45549;DHT22;31270;48.328;10.096;2022-10-22T11:20:18;18.70;99.90
45549;DHT22;31270;48.328;10.096;2022-10-22T11:23:00;18.60;99.90
45549;DHT22;31270;48.328;10.096;2022-10-22T11:25:33;18.60;99.90
45549;DHT22;31270;48.328;10.096;2022-10-22T11:28:14;18.70;99.90
45549;DHT22;31270;48.328;10.096;2022-10-22T11:30:44;18.70;99.90
45549;DHT22;31270;48.328;10.096;2022-10-22T11:33:15;18.50;99.90
45549;DHT22;31270;48.328;10.096;2022-10-22T11:35:44;18.70;99.90
45549;DHT22;31270;48.328;10.096;2022-10-22T11:38:22;18.70;99.90
45549;DHT22;31270;48.328;10.096;2022-10-22T11:41:04;18.50;99.90
45549;DHT22;31270;48.328;10.096;2022-10-22T11:43:51;18.20;99.90
45549;DHT22;31270;48.328;10.096;2022-10-22T11:48:43;18.60;99.90
45549;DHT22;31270;48.328;10.096;2022-10-22T11:51:28;18.90;99.90
45549;DHT22;31270;48.328;10.096;2022-10-22T11:53:56;19.10;99.90
45549;DHT22;31270;48.328;10.096;2022-10-22T11:56:26;19.40;99.90
45549;DHT22;31270;48.328;10.096;2022-10-22T11:59:00;19.40;99.90
45549;DHT22;31270;48.328;10.096;2022-10-22T12:01:38;19.40;99.90
45549;DHT22;31270;48.328;10.096;2022-10-22T12:04:15;19.30;99.90
45549;DHT22;31270;48.328;10.096;2022-10-22T12:07:01;19.60;99.90
45549;DHT22;31270;48.328;10.096;2022-10-22T12:09:28;19.80;99.90
45549;DHT22;31270;48.328;10.096;2022-10-22T12:12:12;19.80;99.90
45549;DHT22;31270;48.328;10.096;2022-10-22T12:14:55;19.90;99.90
45549;DHT22;31270;48.328;10.096;2022-10-22T12:17:24;19.90;99.90
45549;DHT22;31270;48.328;10.096;2022-10-22T12:20:03;20.00;99.90
45549;DHT22;31270;48.328;10.096;2022-10-22T12:22:33;19.90;99.90
45549;DHT22;31270;48.328;10.096;2022-10-22T12:25:08;20.10;99.90
45549;DHT22;31270;48.328;10.096;2022-10-22T12:27:37;20.10;99.90
45549;DHT22;31270;48.328;10.096;2022-10-22T12:30:27;19.80;99.90
45549;DHT22;31270;48.328;10.096;2022-10-22T12:32:56;20.10;99.90
45549;DHT22;31270;48.328;10.096;2022-10-22T12:35:25;20.30;99.90
45549;DHT22;31270;48.328;10.096;2022-10-22T12:37:55;20.30;99.90
45549;DHT22;31270;48.328;10.096;2022-10-22T12:40:27;20.50;99.90
45549;DHT22;31270;48.328;10.096;2022-10-22T12:42:59;20.50;99.90
45549;DHT22;31270;48.328;10.096;2022-10-22T12:45:29;20.60;99.90
45549;DHT22;31270;48.328;10.096;2022-10-22T12:48:04;20.40;99.90
45549;DHT22;31270;48.328;10.096;2022-10-22T12:50:35;20.40;99.90
45549;DHT22;31270;48.328;10.096;2022-10-22T12:53:16;20.60;99.90
45549;DHT22;31270;48.328;10.096;2022-10-22T12:55:46;20.70;99.90
45549;DHT22;31270;48.328;10.096;2022-10-22T12:58:19;20.80;99.90
45549;DHT22;31270;48.328;10.096;2022-10-22T13:00:46;21.00;99.90
45549;DHT22;31270;48.328;10.096;2022-10-22T13:03:32;20.80;99.90
45549;DHT22;31270;48.328;10.096;2022-10-22T13:06:23;21.00;99.90
45549;DHT22;31270;48.328;10.096;2022-10-22T13:11:36;20.80;99.90
45549;DHT22;31270;48.328;10.096;2022-10-22T13:14:04;20.70;99.90
45549;DHT22;31270;48.328;10.096;2022-10-22T13:16:31;20.70;99.90
45549;DHT22;31270;48.328;10.096;2022-10-22T13:18:57;20.70;99.90
45549;DHT22;31270;48.328;10.096;2022-10-22T13:21:39;20.60;99.90
45549;DHT22;31270;48.328;10.096;2022-10-22T13:24:23;20.50;99.90
45549;DHT22;31270;48.328;10.096;2022-10-22T13:26:51;20.50;99.90
45549;DHT22;31270;48.328;10.096;2022-10-22T13:29:19;20.50;99.90
45549;DHT22;31270;48.328;10.096;2022-10-22T13:31:47;20.40;99.90
45549;DHT22;31270;48.328;10.096;2022-10-22T13:34:20;20.50;99.90
45549;DHT22;31270;48.328;10.096;2022-10-22T13:36:47;20.60;99.90
45549;DHT22;31270;48.328;10.096;2022-10-22T13:39:22;20.60;99.90
45549;DHT22;31270;48.328;10.096;2022-10-22T13:41:48;20.60;99.90
45549;DHT22;31270;48.328;10.096;2022-10-22T13:44:18;20.70;99.90
45549;DHT22;31270;48.328;10.096;2022-10-22T13:46:45;20.70;99.90
45549;DHT22;31270;48.328;10.096;2022-10-22T13:49:16;20.70;99.90
45549;DHT22;31270;48.328;10.096;2022-10-22T13:51:42;20.80;99.90
45549;DHT22;31270;48.328;10.096;2022-10-22T13:54:14;20.70;99.90
45549;DHT22;31270;48.328;10.096;2022-10-22T13:56:40;21.00;99.90
45549;DHT22;31270;48.328;10.096;2022-10-22T13:59:08;21.00;99.90
45549;DHT22;31270;48.328;10.096;2022-10-22T14:01:33;21.00;99.90
45549;DHT22;31270;48.328;10.096;2022-10-22T14:04:00;20.80;99.90
45549;DHT22;31270;48.328;10.096;2022-10-22T14:06:30;20.80;99.90
45549;DHT22;31270;48.328;10.096;2022-10-22T14:08:59;20.90;99.90
45549;DHT22;31270;48.328;10.096;2022-10-22T14:11:27;20.80;99.90
45549;DHT22;31270;48.328;10.096;2022-10-22T14:13:53;20.90;99.90
45549;DHT22;31270;48.328;10.096;2022-10-22T14:16:24;20.70;99.90
45549;DHT22;31270;48.328;10.096;2022-10-22T14:18:50;20.70;99.90
45549;DHT22;31270;48.328;10.096;2022-10-22T14:21:17;20.70;99.90
45549;DHT22;31270;48.328;10.096;2022-10-22T14:23:45;20.60;99.90
45549;DHT22;31270;48.328;10.096;2022-10-22T14:26:27;20.60;99.90
45549;DHT22;31270;48.328;10.096;2022-10-22T14:28:54;20.60;99.90
45549;DHT22;31270;48.328;10.096;2022-10-22T14:31:20;20.30;99.90
45549;DHT22;31270;48.328;10.096;2022-10-22T14:33:49;20.20;99.90
45549;DHT22;31270;48.328;10.096;2022-10-22T14:36:16;20.20;99.90
45549;DHT22;31270;48.328;10.096;2022-10-22T14:38:44;20.30;99.90
45549;DHT22;31270;48.328;10.096;2022-10-22T14:41:20;20.30;99.90
45549;DHT22;31270;48.328;10.096;2022-10-22T14:43:47;20.20;99.90
45549;DHT22;31270;48.328;10.096;2022-10-22T14:46:15;20.10;99.90
45549;DHT22;31270;48.328;10.096;2022-10-22T14:48:41;20.00;99.90
45549;DHT22;31270;48.328;10.096;2022-10-22T14:51:16;19.90;99.90
45549;DHT22;31270;48.328;10.096;2022-10-22T14:53:43;20.00;99.90
45549;DHT22;31270;48.328;10.096;2022-10-22T14:56:11;19.90;99.90
45549;DHT22;31270;48.328;10.096;2022-10-22T14:58:38;19.80;99.90
45549;DHT22;31270;48.328;10.096;2022-10-22T15:01:04;19.70;99.90
45549;DHT22;31270;48.328;10.096;2022-10-22T15:03:30;19.70;99.90
45549;DHT22;31270;48.328;10.096;2022-10-22T15:05:56;19.60;99.90
45549;DHT22;31270;48.328;10.096;2022-10-22T15:08:22;19.60;99.90
45549;DHT22;31270;48.328;10.096;2022-10-22T15:11:02;19.60;99.90
45549;DHT22;31270;48.328;10.096;2022-10-22T15:13:29;19.30;99.90
45549;DHT22;31270;48.328;10.096;2022-10-22T15:15:55;19.20;99.90
45549;DHT22;31270;48.328;10.096;2022-10-22T15:18:21;19.00;99.90
45549;DHT22;31270;48.328;10.096;2022-10-22T15:20:58;19.00;99.90
45549;DHT22;31270;48.328;10.096;2022-10-22T15:23:24;18.80;99.90
45549;DHT22;31270;48.328;10.096;2022-10-22T15:25:50;18.90;99.90
45549;DHT22;31270;48.328;10.096;2022-10-22T15:28:16;18.80;99.90
45549;DHT22;31270;48.328;10.096;2022-10-22T15:30:42;18.80;99.90
45549;DHT22;31270;48.328;10.096;2022-10-22T15:33:08;18.80;99.90
45549;DHT22;31270;48.328;10.096;2022-10-22T15:35:33;18.80;99.90
45549;DHT22;31270;48.328;10.096;2022-10-22T15:37:59;18.60;99.90
45549;DHT22;31270;48.328;10.096;2022-10-22T15:40:25;18.60;99.90
45549;DHT22;31270;48.328;10.096;2022-10-22T15:42:50;18.50;99.90
45549;DHT22;31270;48.328;10.096;2022-10-22T15:45:16;18.30;99.90
45549;DHT22;31270;48.328;10.096;2022-10-22T15:47:46;18.30;99.90
45549;DHT22;31270;48.328;10.096;2022-10-22T15:50:11;18.20;99.90
45549;DHT22;31270;48.328;10.096;2022-10-22T15:52:37;18.00;99.90
45549;DHT22;31270;48.328;10.096;2022-10-22T15:55:03;18.10;99.90
45549;DHT22;31270;48.328;10.096;2022-10-22T15:57:31;17.90;99.90
45549;DHT22;31270;48.328;10.096;2022-10-22T15:59:57;17.70;99.90
45549;DHT22;31270;48.328;10.096;2022-10-22T16:02:23;17.50;99.90
45549;DHT22;31270;48.328;10.096;2022-10-22T16:04:48;17.30;99.90
45549;DHT22;31270;48.328;10.096;2022-10-22T16:07:14;17.20;99.90
45549;DHT22;31270;48.328;10.096;2022-10-22T16:09:40;17.10;99.90
45549;DHT22;31270;48.328;10.096;2022-10-22T16:12:06;16.90;99.90
45549;DHT22;31270;48.328;10.096;2022-10-22T16:14:31;16.90;99.90
45549;DHT22;31270;48.328;10.096;2022-10-22T16:16:57;16.90;99.90
45549;DHT22;31270;48.328;10.096;2022-10-22T16:19:24;17.00;99.90
45549;DHT22;31270;48.328;10.096;2022-10-22T16:21:52;16.80;99.90
45549;DHT22;31270;48.328;10.096;2022-10-22T16:24:18;16.60;99.90
45549;DHT22;31270;48.328;10.096;2022-10-22T16:26:45;16.60;99.90
45549;DHT22;31270;48.328;10.096;2022-10-22T16:29:10;16.40;99.90
45549;DHT22;31270;48.328;10.096;2022-10-22T16:31:38;16.30;99.90
45549;DHT22;31270;48.328;10.096;2022-10-22T16:34:05;16.20;99.90
45549;DHT22;31270;48.328;10.096;2022-10-22T16:36:31;16.30;99.90
45549;DHT22;31270;48.328;10.096;2022-10-22T16:38:57;16.10;99.90
45549;DHT22;31270;48.328;10.096;2022-10-22T16:41:24;16.00;99.90
45549;DHT22;31270;48.328;10.096;2022-10-22T16:43:51;15.90;99.90
45549;DHT22;31270;48.328;10.096;2022-10-22T16:46:20;15.80;99.90
45549;DHT22;31270;48.328;10.096;2022-10-22T16:48:51;15.70;99.90
45549;DHT22;31270;48.328;10.096;2022-10-22T16:51:19;15.70;99.90